Iberica Hav — C6YI3 — position and weather

sailwx.info

Track history (hours):
 
Tides and Currents Weather Stations Pressure Air Temp Water Temp Dewpoint Dewpoint Depression Visibility Wind Speed Wind Dir Waves Ship Positions

Iberica Hav

Last reported at 2015-May-04 20:32 UTC. Time now 2015-May-04 21:07 UTC.
Position N 53°07' E 008°45'.

Length 88 m; draft 3.8 m.

Type: Cargo ship. MMSI: 311034400.

Date/timePositionNaut miles runAvg speedWind from/ knotsBaromVisibWave heightAir tempDewpointWater temp
2015-May-04 20:32N 53°07' E 008°45'0 0.0
2015-May-04 19:32N 53°07' E 008°45'0 0.0
2015-May-04 18:32N 53°07' E 008°45'0 0.0
2015-May-04 17:32N 53°07' E 008°45'0 0.0
2015-May-04 16:32N 53°07' E 008°45'0 0.0
2015-May-04 15:32N 53°07' E 008°45'0 0.0
2015-May-04 14:32N 53°07' E 008°45'0 0.0
2015-May-04 13:32N 53°06' E 008°45'0 0.0
2015-May-04 12:32N 53°07' E 008°45'0 0.0
2015-May-04 11:32N 53°07' E 008°45'0 0.1
2015-May-04 10:32N 53°07' E 008°45'0 0.0
2015-May-04 09:32N 53°07' E 008°45'0 0.0
2015-May-04 08:32N 53°07' E 008°45'0 0.0
2015-May-04 07:32N 53°07' E 008°45'0 0.0
2015-May-04 06:32N 53°07' E 008°45'0 0.0
2015-May-04 05:32N 53°07' E 008°45'0 0.0
2015-May-04 04:32N 53°07' E 008°45'0 0.0
2015-May-04 03:32N 53°07' E 008°45'0 0.0
2015-May-04 02:32N 53°07' E 008°45'0 0.0
2015-May-04 01:32N 53°07' E 008°45'0 0.0
2015-May-04 00:32N 53°07' E 008°45'0 0.0
2015-May-03 23:32N 53°07' E 008°45'0 0.0
2015-May-03 22:32N 53°07' E 008°45'0 0.0
2015-May-03 21:32N 53°07' E 008°45'0 0.0
2015-May-03 20:32N 53°07' E 008°45'0 0.0
2015-May-03 19:32N 53°07' E 008°45'0 0.0
2015-May-03 18:32N 53°07' E 008°45'0 0.0
2015-May-03 17:32N 53°07' E 008°45'0 0.0
2015-May-03 16:32N 53°07' E 008°45'0 0.0
2015-May-03 15:32N 53°07' E 008°45'0 0.0
2015-May-03 14:32N 53°07' E 008°45'0 0.0
2015-May-03 13:32N 53°07' E 008°45'0 0.0
2015-May-03 12:32N 53°07' E 008°45'0 0.0
2015-May-03 11:34N 53°07' E 008°45'7 7.2
2015-May-03 10:33N 53°10' E 008°35'1010.0
2015-May-03 09:33N 53°20' E 008°29'1111.0
2015-May-03 08:34N 53°31' E 008°32'9 9.0
2015-May-03 07:33N 53°39' E 008°25'1010.0
2015-May-03 06:33N 53°45' E 008°12'9 8.8
2015-May-03 05:34N 53°53' E 008°05'6 6.1
2015-May-03 04:33N 53°59' E 008°03'10 9.8
2015-May-03 03:34N 54°00' E 008°19'1212.4
2015-May-03 02:33N 53°56' E 008°40'1010.0
2015-May-03 01:33N 53°51' E 008°54'9 8.6
2015-May-03 00:33N 53°53' E 009°08'1 1.4
2015-May-02 23:34N 53°54' E 009°09'0 0.0
2015-May-02 22:33N 53°54' E 009°09'6 6.4
2015-May-02 21:33N 53°59' E 009°16'10 8.3
2015-May-02 20:18N 54°09' E 009°21'8 8.9
2015-May-02 19:21N 54°12' E 009°34'7 7.9
2015-May-02 18:30N 54°18' E 009°41'13 6.2
2015-May-02 16:29N 54°22' E 010°02'3 3.2
2015-May-02 15:34N 54°22' E 010°06'2 2.2
2015-May-02 14:34N 54°22' E 010°10'8 7.5
2015-May-02 13:33N 54°29' E 010°16'9 8.5
2015-May-02 12:33N 54°33' E 010°30'19 8.2
2015-May-02 10:16N 54°36' E 011°01'6 8.4
2015-May-02 09:33N 54°35' E 011°12'8 8.5
2015-May-02 08:34N 54°33' E 011°25'8 8.4
2015-May-02 07:33N 54°30' E 011°39'8 8.1
2015-May-02 06:34N 54°30' E 011°53'8 7.7
2015-May-02 05:33N 54°31' E 012°06'8 8.5
2015-May-02 04:33N 54°37' E 012°17'9 8.6
2015-May-02 03:32N 54°42' E 012°30'11 8.4
2015-May-02 02:14N 54°48' E 012°46'31 8.4
2015-May-01 22:33N 54°59' E 013°36'35 8.3
2015-May-01 18:23N 55°19' E 014°26'8 8.7
2015-May-01 17:31N 55°24' E 014°35'8 8.4
2015-May-01 16:31N 55°29' E 014°47'10 8.4
2015-May-01 15:16N 55°35' E 015°03'116 7.8
2015-May-01 00:19N 57°07' E 017°09'7 7.9
2015-Apr-30 23:29N 57°14' E 017°11'7 7.9
2015-Apr-30 22:32N 57°21' E 017°13'8 8.0
2015-Apr-30 21:31N 57°29' E 017°14'12 0.4
2015-Apr-29 18:33N 57°30' E 016°52'9 9.4
2015-Apr-29 17:33N 57°21' E 016°45'9 9.4
2015-Apr-29 16:33N 57°12' E 016°38'7 3.1
2015-Apr-29 14:16N 57°06' E 016°34'0 0.0
2015-Apr-29 13:28N 57°06' E 016°34'4 0.5
2015-Apr-29 06:28N 57°09' E 016°35'0 0.4
2015-Apr-29 05:28N 57°10' E 016°35'0 0.0
2015-Apr-29 04:22N 57°10' E 016°35'0 0.0
2015-Apr-29 03:28N 57°10' E 016°35'0 0.0
2015-Apr-29 02:28N 57°10' E 016°35'0 0.0
2015-Apr-29 01:28N 57°10' E 016°35'0 0.0
2015-Apr-29 00:31N 57°10' E 016°35'0 0.0
2015-Apr-28 23:31N 57°10' E 016°35'0 0.0
2015-Apr-28 22:28N 57°10' E 016°35'0 0.0
2015-Apr-28 21:07N 57°10' E 016°35'0 0.0
2015-Apr-28 20:31N 57°10' E 016°35'0 0.0
2015-Apr-28 19:19N 57°10' E 016°35'0 0.0
2015-Apr-28 18:28N 57°10' E 016°35'0 0.0
2015-Apr-28 11:13N 57°10' E 016°35'0 0.0
2015-Apr-28 08:31N 57°10' E 016°35'0 0.0
2015-Apr-28 07:28N 57°10' E 016°35'0 0.0
2015-Apr-28 05:28N 57°10' E 016°35'0 0.0
2015-Apr-28 04:31N 57°10' E 016°35'2 2.2
2015-Apr-28 03:33N 57°11' E 016°38'6 6.5
2015-Apr-28 02:33N 57°16' E 016°47'6 5.8
2015-Apr-28 01:33N 57°19' E 016°55'6 5.8
2015-Apr-28 00:34N 57°23' E 017°03'5 5.4
2015-Apr-27 23:33N 57°20' E 017°12'13 6.5
2015-Apr-27 21:32N 57°07' E 017°11'111 6.9
2015-Apr-27 05:28N 55°35' E 015°18'7 8.0
2015-Apr-27 04:33N 55°31' E 015°07'8 8.1
2015-Apr-27 03:32N 55°27' E 014°54'8 8.2
2015-Apr-27 02:31N 55°23' E 014°41'8 8.0
2015-Apr-27 01:30N 55°17' E 014°31'8 8.0
2015-Apr-27 00:34N 55°12' E 014°21'8 7.8
2015-Apr-26 23:33N 55°11' E 014°08'8 7.6
2015-Apr-26 22:34N 55°11' E 013°55'33 8.2
2015-Apr-26 18:32N 55°15' E 012°57'8 8.3
2015-Apr-26 17:33N 55°17' E 012°43'7 7.0
2015-Apr-26 16:34N 55°24' E 012°40'9 8.6
2015-Apr-26 15:34N 55°32' E 012°42'9 8.6
2015-Apr-26 14:33N 55°41' E 012°41'8 8.3
2015-Apr-26 13:34N 55°49' E 012°40'8 8.2
2015-Apr-26 12:34N 55°57' E 012°38'7 7.3
2015-Apr-26 11:33N 56°04' E 012°36'8 7.9
2015-Apr-26 10:34N 56°09' E 012°24'8 7.6
2015-Apr-26 09:34N 56°14' E 012°13'26 7.9
2015-Apr-26 06:15N 56°37' E 011°54'6 8.5
2015-Apr-26 05:33N 56°43' E 011°51'9 8.6
2015-Apr-26 04:34N 56°51' E 011°46'12 8.3
2015-Apr-26 03:11N 57°02' E 011°37'15 8.8
2015-Apr-26 01:30N 57°15' E 011°26'8 8.8
2015-Apr-26 00:33N 57°23' E 011°19'9 9.0
2015-Apr-25 23:33N 57°30' E 011°10'9 9.1
2015-Apr-25 22:34N 57°37' E 010°59'10 9.0
2015-Apr-25 21:27N 57°45' E 010°47'142 8.4
2015-Apr-25 04:31N 58°05' E 006°22'7 7.2
2015-Apr-25 03:33N 58°09' E 006°11'7 7.4
2015-Apr-25 02:33N 58°14' E 006°01'8 8.3
2015-Apr-25 01:32N 58°20' E 005°50'9 8.2
2015-Apr-25 00:27N 58°26' E 005°38'7 7.6
2015-Apr-24 23:30N 58°32' E 005°29'23 7.8
2015-Apr-24 20:33N 58°52' E 005°07'  
Track history (hours):
 
Tides and Currents Weather Stations Pressure Air Temp Water Temp Dewpoint Dewpoint Depression Visibility Wind Speed Wind Dir Waves Ship Positions

Iberica Hav

Last reported at 2015-May-04 20:32 UTC. Time now 2015-May-04 21:07 UTC.
Position N 53°07' E 008°45'.

Length 88 m; draft 3.8 m.

Type: Cargo ship. MMSI: 311034400.

Date/timePositionNaut miles runAvg speedWind from/ knotsBaromVisibWave heightAir tempDewpointWater temp
2015-May-04 20:32N 53°07' E 008°45'0 0.0
2015-May-04 19:32N 53°07' E 008°45'0 0.0
2015-May-04 18:32N 53°07' E 008°45'0 0.0
2015-May-04 17:32N 53°07' E 008°45'0 0.0
2015-May-04 16:32N 53°07' E 008°45'0 0.0
2015-May-04 15:32N 53°07' E 008°45'0 0.0
2015-May-04 14:32N 53°07' E 008°45'0 0.0
2015-May-04 13:32N 53°06' E 008°45'0 0.0
2015-May-04 12:32N 53°07' E 008°45'0 0.0
2015-May-04 11:32N 53°07' E 008°45'0 0.1
2015-May-04 10:32N 53°07' E 008°45'0 0.0
2015-May-04 09:32N 53°07' E 008°45'0 0.0
2015-May-04 08:32N 53°07' E 008°45'0 0.0
2015-May-04 07:32N 53°07' E 008°45'0 0.0
2015-May-04 06:32N 53°07' E 008°45'0 0.0
2015-May-04 05:32N 53°07' E 008°45'0 0.0
2015-May-04 04:32N 53°07' E 008°45'0 0.0
2015-May-04 03:32N 53°07' E 008°45'0 0.0
2015-May-04 02:32N 53°07' E 008°45'0 0.0
2015-May-04 01:32N 53°07' E 008°45'0 0.0
2015-May-04 00:32N 53°07' E 008°45'0 0.0
2015-May-03 23:32N 53°07' E 008°45'0 0.0
2015-May-03 22:32N 53°07' E 008°45'0 0.0
2015-May-03 21:32N 53°07' E 008°45'0 0.0
2015-May-03 20:32N 53°07' E 008°45'0 0.0
2015-May-03 19:32N 53°07' E 008°45'0 0.0
2015-May-03 18:32N 53°07' E 008°45'0 0.0
2015-May-03 17:32N 53°07' E 008°45'0 0.0
2015-May-03 16:32N 53°07' E 008°45'0 0.0
2015-May-03 15:32N 53°07' E 008°45'0 0.0
2015-May-03 14:32N 53°07' E 008°45'0 0.0
2015-May-03 13:32N 53°07' E 008°45'0 0.0
2015-May-03 12:32N 53°07' E 008°45'0 0.0
2015-May-03 11:34N 53°07' E 008°45'7 7.2
2015-May-03 10:33N 53°10' E 008°35'1010.0
2015-May-03 09:33N 53°20' E 008°29'1111.0
2015-May-03 08:34N 53°31' E 008°32'9 9.0
2015-May-03 07:33N 53°39' E 008°25'1010.0
2015-May-03 06:33N 53°45' E 008°12'9 8.8
2015-May-03 05:34N 53°53' E 008°05'6 6.1
2015-May-03 04:33N 53°59' E 008°03'10 9.8
2015-May-03 03:34N 54°00' E 008°19'1212.4
2015-May-03 02:33N 53°56' E 008°40'1010.0
2015-May-03 01:33N 53°51' E 008°54'9 8.6
2015-May-03 00:33N 53°53' E 009°08'1 1.4
2015-May-02 23:34N 53°54' E 009°09'0 0.0
2015-May-02 22:33N 53°54' E 009°09'6 6.4
2015-May-02 21:33N 53°59' E 009°16'10 8.3
2015-May-02 20:18N 54°09' E 009°21'8 8.9
2015-May-02 19:21N 54°12' E 009°34'7 7.9
2015-May-02 18:30N 54°18' E 009°41'13 6.2
2015-May-02 16:29N 54°22' E 010°02'3 3.2
2015-May-02 15:34N 54°22' E 010°06'2 2.2
2015-May-02 14:34N 54°22' E 010°10'8 7.5
2015-May-02 13:33N 54°29' E 010°16'9 8.5
2015-May-02 12:33N 54°33' E 010°30'19 8.2
2015-May-02 10:16N 54°36' E 011°01'6 8.4
2015-May-02 09:33N 54°35' E 011°12'8 8.5
2015-May-02 08:34N 54°33' E 011°25'8 8.4
2015-May-02 07:33N 54°30' E 011°39'8 8.1
2015-May-02 06:34N 54°30' E 011°53'8 7.7
2015-May-02 05:33N 54°31' E 012°06'8 8.5
2015-May-02 04:33N 54°37' E 012°17'9 8.6
2015-May-02 03:32N 54°42' E 012°30'11 8.4
2015-May-02 02:14N 54°48' E 012°46'31 8.4
2015-May-01 22:33N 54°59' E 013°36'35 8.3
2015-May-01 18:23N 55°19' E 014°26'8 8.7
2015-May-01 17:31N 55°24' E 014°35'8 8.4
2015-May-01 16:31N 55°29' E 014°47'10 8.4
2015-May-01 15:16N 55°35' E 015°03'116 7.8
2015-May-01 00:19N 57°07' E 017°09'7 7.9
2015-Apr-30 23:29N 57°14' E 017°11'7 7.9
2015-Apr-30 22:32N 57°21' E 017°13'8 8.0
2015-Apr-30 21:31N 57°29' E 017°14'12 0.4
2015-Apr-29 18:33N 57°30' E 016°52'9 9.4
2015-Apr-29 17:33N 57°21' E 016°45'9 9.4
2015-Apr-29 16:33N 57°12' E 016°38'7 3.1
2015-Apr-29 14:16N 57°06' E 016°34'0 0.0
2015-Apr-29 13:28N 57°06' E 016°34'4 0.5
2015-Apr-29 06:28N 57°09' E 016°35'0 0.4
2015-Apr-29 05:28N 57°10' E 016°35'0 0.0
2015-Apr-29 04:22N 57°10' E 016°35'0 0.0
2015-Apr-29 03:28N 57°10' E 016°35'0 0.0
2015-Apr-29 02:28N 57°10' E 016°35'0 0.0
2015-Apr-29 01:28N 57°10' E 016°35'0 0.0
2015-Apr-29 00:31N 57°10' E 016°35'0 0.0
2015-Apr-28 23:31N 57°10' E 016°35'0 0.0
2015-Apr-28 22:28N 57°10' E 016°35'0 0.0
2015-Apr-28 21:07N 57°10' E 016°35'0 0.0
2015-Apr-28 20:31N 57°10' E 016°35'0 0.0
2015-Apr-28 19:19N 57°10' E 016°35'0 0.0
2015-Apr-28 18:28N 57°10' E 016°35'0 0.0
2015-Apr-28 11:13N 57°10' E 016°35'0 0.0
2015-Apr-28 08:31N 57°10' E 016°35'0 0.0
2015-Apr-28 07:28N 57°10' E 016°35'0 0.0
2015-Apr-28 05:28N 57°10' E 016°35'0 0.0
2015-Apr-28 04:31N 57°10' E 016°35'2 2.2
2015-Apr-28 03:33N 57°11' E 016°38'6 6.5
2015-Apr-28 02:33N 57°16' E 016°47'6 5.8
2015-Apr-28 01:33N 57°19' E 016°55'6 5.8
2015-Apr-28 00:34N 57°23' E 017°03'5 5.4
2015-Apr-27 23:33N 57°20' E 017°12'13 6.5
2015-Apr-27 21:32N 57°07' E 017°11'111 6.9
2015-Apr-27 05:28N 55°35' E 015°18'7 8.0
2015-Apr-27 04:33N 55°31' E 015°07'8 8.1
2015-Apr-27 03:32N 55°27' E 014°54'8 8.2
2015-Apr-27 02:31N 55°23' E 014°41'8 8.0
2015-Apr-27 01:30N 55°17' E 014°31'8 8.0
2015-Apr-27 00:34N 55°12' E 014°21'8 7.8
2015-Apr-26 23:33N 55°11' E 014°08'8 7.6
2015-Apr-26 22:34N 55°11' E 013°55'33 8.2
2015-Apr-26 18:32N 55°15' E 012°57'8 8.3
2015-Apr-26 17:33N 55°17' E 012°43'7 7.0
2015-Apr-26 16:34N 55°24' E 012°40'9 8.6
2015-Apr-26 15:34N 55°32' E 012°42'9 8.6
2015-Apr-26 14:33N 55°41' E 012°41'8 8.3
2015-Apr-26 13:34N 55°49' E 012°40'8 8.2
2015-Apr-26 12:34N 55°57' E 012°38'7 7.3
2015-Apr-26 11:33N 56°04' E 012°36'8 7.9
2015-Apr-26 10:34N 56°09' E 012°24'8 7.6
2015-Apr-26 09:34N 56°14' E 012°13'26 7.9
2015-Apr-26 06:15N 56°37' E 011°54'6 8.5
2015-Apr-26 05:33N 56°43' E 011°51'9 8.6
2015-Apr-26 04:34N 56°51' E 011°46'12 8.3
2015-Apr-26 03:11N 57°02' E 011°37'15 8.8
2015-Apr-26 01:30N 57°15' E 011°26'8 8.8
2015-Apr-26 00:33N 57°23' E 011°19'9 9.0
2015-Apr-25 23:33N 57°30' E 011°10'9 9.1
2015-Apr-25 22:34N 57°37' E 010°59'10 9.0
2015-Apr-25 21:27N 57°45' E 010°47'142 8.4
2015-Apr-25 04:31N 58°05' E 006°22'7 7.2
2015-Apr-25 03:33N 58°09' E 006°11'7 7.4
2015-Apr-25 02:33N 58°14' E 006°01'8 8.3
2015-Apr-25 01:32N 58°20' E 005°50'9 8.2
2015-Apr-25 00:27N 58°26' E 005°38'7 7.6
2015-Apr-24 23:30N 58°32' E 005°29'23 7.8
2015-Apr-24 20:33N 58°52' E 005°07'  

Dump ship's entire track history